Time;durP1;ratioP1;P1;durP2;ratioP2;P2;SDS_P1;SDS_P2;PMS_P1;PMS_P2;Temp;Humidity;BMP_temperature;BMP_pressure;BME280_temperature;BME280_humidity;BME280_pressure;Samples;Min_cycle;Max_cycle;Signal;HPM_P1;HPM_P2
2022/12/27 00:01:49;;;;;;;9.25;3.08;;;;;;;;;;5015261;28;20044;-73
2022/12/27 00:04:15;;;;;;;7.40;2.35;;;;;;;;;;5027753;28;20091;-73
2022/12/27 00:06:40;;;;;;;13.23;3.30;;;;;;;;;;5033508;28;20500;-73
2022/12/27 00:09:06;;;;;;;7.18;2.33;;;;;;;;;;5028787;28;20026;-73
2022/12/27 00:11:31;;;;;;;5.68;2.47;;;;;;;;;;5032458;28;20045;-73
2022/12/27 00:14:04;;;;;;;5.43;2.25;;;;;;;;;;5028655;28;20032;-72
2022/12/27 00:16:29;;;;;;;5.78;3.00;;;;;;;;;;5026737;28;20501;-73
2022/12/27 00:18:55;;;;;;;7.82;2.75;;;;;;;;;;5024321;28;20045;-72
2022/12/27 00:21:21;;;;;;;11.98;3.10;;;;;;;;;;5030463;28;20044;-73
2022/12/27 00:23:49;;;;;;;10.85;3.05;;;;;;;;;;5025995;28;20030;-72
2022/12/27 00:26:18;;;;;;;11.98;2.97;;;;;;;;;;5027762;28;20047;-72
2022/12/27 00:28:43;;;;;;;7.28;3.28;;;;;;;;;;5026149;28;20025;-72
2022/12/27 00:31:10;;;;;;;10.82;3.85;;;;;;;;;;5023294;28;20092;-73
2022/12/27 00:33:37;;;;;;;14.00;4.55;;;;;;;;;;5023557;28;20052;-72
2022/12/27 00:36:05;;;;;;;10.95;4.22;;;;;;;;;;5025631;28;20029;-73
2022/12/27 00:38:31;;;;;;;15.40;3.97;;;;;;;;;;5026584;28;20030;-73
2022/12/27 00:40:56;;;;;;;10.50;4.07;;;;;;;;;;5023966;28;20049;-73
2022/12/27 00:43:22;;;;;;;13.50;5.25;;;;;;;;;;5027475;28;20068;-73
2022/12/27 00:45:47;;;;;;;15.00;5.35;;;;;;;;;;5017983;28;20049;-72
2022/12/27 00:48:13;;;;;;;17.48;6.05;;;;;;;;;;5020838;28;20401;-72
2022/12/27 00:50:39;;;;;;;18.98;5.72;;;;;;;;;;5018919;28;20517;-73
2022/12/27 00:53:05;;;;;;;15.02;5.53;;;;;;;;;;5021159;28;20056;-73
2022/12/27 00:55:31;;;;;;;15.85;5.75;;;;;;;;;;5032387;28;20048;-73
2022/12/27 00:57:56;;;;;;;16.50;4.97;;;;;;;;;;5019730;28;20469;-72
2022/12/27 01:00:21;;;;;;;20.10;5.95;;;;;;;;;;5027987;28;20025;-73
2022/12/27 01:02:47;;;;;;;15.18;6.20;;;;;;;;;;5025823;28;20034;-72
2022/12/27 01:05:12;;;;;;;16.58;6.03;;;;;;;;;;5025091;28;20470;-73
2022/12/27 01:07:38;;;;;;;14.15;5.38;;;;;;;;;;5030972;28;20038;-73
2022/12/27 01:10:03;;;;;;;11.02;5.80;;;;;;;;;;5019875;28;20453;-72
2022/12/27 01:12:29;;;;;;;15.48;6.72;;;;;;;;;;5017845;28;20108;-72
2022/12/27 01:14:54;;;;;;;11.10;6.00;;;;;;;;;;5026511;28;20031;-73
2022/12/27 01:17:19;;;;;;;18.15;6.93;;;;;;;;;;5022154;28;20436;-72
2022/12/27 01:19:45;;;;;;;21.08;6.85;;;;;;;;;;5025292;28;20026;-72
2022/12/27 01:22:10;;;;;;;16.45;5.80;;;;;;;;;;5018906;28;20065;-72
2022/12/27 01:24:36;;;;;;;16.40;6.50;;;;;;;;;;5019350;28;20056;-73
2022/12/27 01:27:01;;;;;;;15.50;7.53;;;;;;;;;;5017361;28;20076;-73
2022/12/27 01:29:27;;;;;;;26.50;8.45;;;;;;;;;;5032121;28;20059;-73
2022/12/27 01:31:52;;;;;;;18.95;7.03;;;;;;;;;;5027048;28;20131;-73
2022/12/27 01:34:18;;;;;;;14.27;7.32;;;;;;;;;;5021266;28;20029;-72
2022/12/27 01:36:43;;;;;;;17.85;9.25;;;;;;;;;;5026514;28;20033;-73
2022/12/27 01:39:12;;;;;;;19.63;8.95;;;;;;;;;;5026447;28;20045;-73
2022/12/27 01:44:39;;;;;;;14.90;6.28;;;;;;;;;;5018088;28;20049;-73
2022/12/27 01:47:20;;;;;;;16.10;5.18;;;;;;;;;;5015763;28;20064;-73
2022/12/27 01:50:08;;;;;;;14.38;5.00;;;;;;;;;;5018570;28;20054;-72
2022/12/27 01:52:44;;;;;;;10.98;5.05;;;;;;;;;;5018459;28;20034;-73
2022/12/27 01:55:16;;;;;;;14.15;4.13;;;;;;;;;;5025707;28;20106;-72
2022/12/27 01:57:42;;;;;;;9.45;4.22;;;;;;;;;;5010104;28;20404;-73
2022/12/27 02:00:08;;;;;;;10.57;4.75;;;;;;;;;;5020751;28;20488;-73
2022/12/27 02:02:33;;;;;;;12.65;4.25;;;;;;;;;;5027577;28;20029;-73
2022/12/27 02:04:59;;;;;;;13.05;4.25;;;;;;;;;;5030388;28;20048;-73
2022/12/27 02:07:30;;;;;;;16.08;5.00;;;;;;;;;;5029169;28;20531;-73
2022/12/27 02:09:58;;;;;;;9.07;4.40;;;;;;;;;;5015566;28;20470;-72
2022/12/27 02:12:24;;;;;;;16.95;4.90;;;;;;;;;;5025498;28;20049;-72
2022/12/27 02:14:50;;;;;;;11.98;4.88;;;;;;;;;;5025770;28;20104;-72
2022/12/27 02:17:19;;;;;;;11.50;5.13;;;;;;;;;;5019762;28;20549;-72
2022/12/27 02:19:50;;;;;;;11.75;5.20;;;;;;;;;;5020998;28;20038;-72
2022/12/27 02:22:21;;;;;;;11.40;4.60;;;;;;;;;;5020415;28;20049;-72
2022/12/27 02:24:56;;;;;;;18.10;5.18;;;;;;;;;;5026179;28;20041;-73
2022/12/27 02:27:59;;;;;;;7.90;3.92;;;;;;;;;;5021712;28;20034;-72
2022/12/27 02:30:24;;;;;;;10.88;4.15;;;;;;;;;;5031630;28;20385;-73
2022/12/27 02:33:24;;;;;;;8.20;3.70;;;;;;;;;;5034409;28;20045;-73
2022/12/27 02:35:55;;;;;;;7.80;3.75;;;;;;;;;;5026041;28;20060;-72
2022/12/27 02:38:23;;;;;;;9.43;2.95;;;;;;;;;;5017998;28;20045;-73
2022/12/27 02:55:33;;;;;;;9.63;3.72;;;;;;;;;;5013750;28;20461;-73
2022/12/27 02:58:23;;;;;;;12.63;3.28;;;;;;;;;;5026086;28;20073;-73
2022/12/27 03:04:22;;;;;;;20.63;3.75;;;;;;;;;;5022288;28;20091;-73
2022/12/27 03:06:52;;;;;;;10.30;3.33;;;;;;;;;;5022973;28;20042;-72
2022/12/27 03:15:55;;;;;;;6.53;3.10;;;;;;;;;;5011402;28;20144;-73
2022/12/27 03:18:26;;;;;;;13.48;3.55;;;;;;;;;;5019883;28;20044;-73
2022/12/27 03:26:23;;;;;;;11.82;3.05;;;;;;;;;;5017731;28;20077;-72
2022/12/27 03:34:34;;;;;;;9.68;3.80;;;;;;;;;;5022845;28;20536;-73
2022/12/27 03:40:06;;;;;;;13.82;3.90;;;;;;;;;;5019041;28;20401;-72
2022/12/27 03:45:20;;;;;;;6.55;2.80;;;;;;;;;;5020030;28;19924;-73
2022/12/27 03:47:55;;;;;;;4.13;2.63;;;;;;;;;;5014004;28;20091;-72
2022/12/27 03:50:22;;;;;;;;;;;;;;;;;;5020255;28;20050;-73
2022/12/27 03:53:01;;;;;;;7.47;3.10;;;;;;;;;;5049200;28;20016;-73
2022/12/27 03:55:26;;;;;;;10.45;3.13;;;;;;;;;;5030753;28;20393;-73
2022/12/27 03:57:52;;;;;;;9.23;3.50;;;;;;;;;;5030962;28;20040;-73
2022/12/27 04:00:17;;;;;;;10.70;3.22;;;;;;;;;;5026684;28;20538;-72
2022/12/27 04:02:43;;;;;;;7.35;3.28;;;;;;;;;;5015103;28;20509;-73
2022/12/27 04:05:08;;;;;;;20.40;4.38;;;;;;;;;;5026069;28;20436;-73
2022/12/27 04:07:34;;;;;;;7.55;2.92;;;;;;;;;;5021380;28;20052;-73
2022/12/27 04:37:07;;;;;;;20.50;2.97;;;;;;;;;;5022161;28;20045;-73
2022/12/27 04:39:32;;;;;;;15.55;4.05;;;;;;;;;;5023705;28;20392;-74
2022/12/27 04:56:03;;;;;;;9.55;3.40;;;;;;;;;;5024115;28;20052;-73
2022/12/27 04:58:29;;;;;;;11.52;3.20;;;;;;;;;;5029081;28;20088;-74
2022/12/27 05:03:41;;;;;;;10.35;2.88;;;;;;;;;;5023205;28;20037;-73
2022/12/27 05:06:07;;;;;;;11.30;3.15;;;;;;;;;;5026164;28;20037;-73
2022/12/27 05:14:01;;;;;;;9.32;2.85;;;;;;;;;;5029396;28;20579;-73
2022/12/27 05:16:33;;;;;;;6.72;2.53;;;;;;;;;;5022167;28;20111;-74
2022/12/27 05:18:59;;;;;;;16.27;3.20;;;;;;;;;;5022410;28;20362;-73
2022/12/27 05:21:24;;;;;;;8.20;3.00;;;;;;;;;;5024267;28;20036;-73
2022/12/27 05:26:37;;;;;;;10.43;3.20;;;;;;;;;;5019753;28;20056;-73
2022/12/27 05:29:03;;;;;;;17.27;3.08;;;;;;;;;;5019584;28;20469;-73
2022/12/27 05:31:28;;;;;;;12.05;3.85;;;;;;;;;;5017519;28;20041;-74
2022/12/27 05:33:54;;;;;;;21.75;3.65;;;;;;;;;;5020247;28;20018;-73
2022/12/27 05:36:20;;;;;;;21.15;3.72;;;;;;;;;;5024099;28;20109;-73
2022/12/27 05:38:45;;;;;;;15.05;3.03;;;;;;;;;;5015751;28;20042;-73
2022/12/27 05:41:11;;;;;;;17.33;3.13;;;;;;;;;;5017823;28;20069;-74
2022/12/27 05:43:36;;;;;;;18.88;3.70;;;;;;;;;;5020587;28;20022;-75
2022/12/27 05:46:03;;;;;;;21.33;3.65;;;;;;;;;;5022230;28;20512;-73
2022/12/27 05:48:29;;;;;;;16.08;4.03;;;;;;;;;;5021967;28;20033;-75
2022/12/27 05:50:54;;;;;;;21.63;3.30;;;;;;;;;;5030200;28;20105;-73
2022/12/27 05:53:19;;;;;;;21.80;3.72;;;;;;;;;;5021675;28;20041;-73
2022/12/27 05:55:55;;;;;;;26.77;4.07;;;;;;;;;;5020471;28;20029;-73
2022/12/27 05:58:21;;;;;;;23.27;3.55;;;;;;;;;;5016124;28;20048;-73
2022/12/27 06:00:46;;;;;;;15.60;3.72;;;;;;;;;;5012631;28;20478;-73
2022/12/27 06:03:11;;;;;;;21.77;4.38;;;;;;;;;;5024578;28;20053;-73
2022/12/27 06:05:37;;;;;;;35.88;4.15;;;;;;;;;;5031307;28;20069;-74
2022/12/27 06:08:02;;;;;;;21.38;4.38;;;;;;;;;;5026918;28;20177;-73
2022/12/27 06:10:27;;;;;;;20.33;4.63;;;;;;;;;;5031837;28;20037;-74
2022/12/27 06:12:53;;;;;;;10.38;3.28;;;;;;;;;;5031787;28;20052;-73
2022/12/27 06:15:18;;;;;;;24.15;4.03;;;;;;;;;;5028620;28;20394;-73
2022/12/27 06:17:44;;;;;;;27.63;4.20;;;;;;;;;;5028062;28;20022;-73
2022/12/27 06:20:09;;;;;;;11.50;3.53;;;;;;;;;;5028506;28;20042;-74
2022/12/27 06:22:35;;;;;;;26.95;4.20;;;;;;;;;;5018141;28;20065;-73
2022/12/27 06:25:00;;;;;;;24.25;3.72;;;;;;;;;;5033752;28;20025;-73
2022/12/27 06:27:26;;;;;;;24.02;3.90;;;;;;;;;;5028231;28;20485;-73
2022/12/27 06:29:51;;;;;;;12.30;3.47;;;;;;;;;;5032275;28;20042;-73
2022/12/27 06:32:17;;;;;;;6.53;2.30;;;;;;;;;;5032791;28;20477;-74
2022/12/27 06:34:43;;;;;;;14.00;1.88;;;;;;;;;;5018281;28;20108;-74
2022/12/27 06:37:08;;;;;;;9.13;1.42;;;;;;;;;;5029488;28;20064;-73
2022/12/27 06:39:34;;;;;;;16.27;1.85;;;;;;;;;;5026555;28;20470;-74
2022/12/27 06:41:59;;;;;;;14.57;1.45;;;;;;;;;;5027293;28;20037;-73
2022/12/27 06:44:26;;;;;;;21.00;1.67;;;;;;;;;;5034230;28;20045;-73
2022/12/27 06:46:51;;;;;;;8.93;1.48;;;;;;;;;;5030978;28;20029;-73
2022/12/27 06:49:16;;;;;;;13.23;2.22;;;;;;;;;;5018903;28;20115;-74
2022/12/27 06:51:42;;;;;;;13.23;2.00;;;;;;;;;;5023981;28;20029;-74
2022/12/27 06:54:07;;;;;;;14.85;4.18;;;;;;;;;;5023457;28;20536;-73
2022/12/27 06:56:33;;;;;;;23.45;7.35;;;;;;;;;;5030088;28;20045;-74
2022/12/27 06:58:58;;;;;;;8.40;2.90;;;;;;;;;;5035147;28;20046;-73
2022/12/27 07:01:26;;;;;;;3.40;1.40;;;;;;;;;;5030080;28;20030;-73
2022/12/27 07:03:56;;;;;;;15.77;1.83;;;;;;;;;;5016508;28;20042;-73
2022/12/27 07:06:22;;;;;;;12.65;2.13;;;;;;;;;;5031736;28;20061;-73
2022/12/27 07:08:49;;;;;;;14.07;2.58;;;;;;;;;;5027069;28;20088;-73
2022/12/27 07:11:16;;;;;;;17.77;1.85;;;;;;;;;;5030297;28;20105;-73
2022/12/27 07:13:50;;;;;;;10.38;1.50;;;;;;;;;;5022624;28;20046;-73
2022/12/27 07:16:18;;;;;;;9.80;1.55;;;;;;;;;;5024428;28;20524;-73
2022/12/27 07:18:44;;;;;;;12.93;1.33;;;;;;;;;;5026842;28;20124;-74
2022/12/27 07:21:12;;;;;;;10.52;1.38;;;;;;;;;;5030723;28;20108;-73
2022/12/27 07:23:38;;;;;;;7.07;1.42;;;;;;;;;;5023631;28;20041;-73
2022/12/27 07:26:06;;;;;;;12.20;2.33;;;;;;;;;;5024059;28;20111;-73
2022/12/27 07:28:31;;;;;;;21.20;3.95;;;;;;;;;;5030232;28;20505;-74
2022/12/27 07:30:57;;;;;;;27.35;3.80;;;;;;;;;;5033488;28;20073;-73
2022/12/27 07:33:22;;;;;;;11.77;2.33;;;;;;;;;;5021233;28;20052;-73
2022/12/27 07:35:48;;;;;;;9.23;2.30;;;;;;;;;;5016530;28;20037;-73
2022/12/27 07:38:13;;;;;;;16.95;2.10;;;;;;;;;;5022129;28;20041;-73
2022/12/27 07:40:38;;;;;;;15.75;2.33;;;;;;;;;;5025922;28;20509;-73
2022/12/27 07:43:04;;;;;;;10.45;1.90;;;;;;;;;;5029028;28;20085;-73
2022/12/27 07:45:29;;;;;;;7.88;1.63;;;;;;;;;;5021218;28;20494;-73
2022/12/27 07:47:55;;;;;;;11.23;2.03;;;;;;;;;;5028469;28;20038;-73
2022/12/27 07:50:20;;;;;;;16.45;3.10;;;;;;;;;;5016707;28;20050;-73
2022/12/27 07:52:45;;;;;;;9.90;2.55;;;;;;;;;;5020520;28;20041;-73
2022/12/27 07:55:11;;;;;;;8.77;3.15;;;;;;;;;;5030269;28;20041;-73
2022/12/27 07:57:36;;;;;;;9.80;2.30;;;;;;;;;;5027652;28;20029;-74
2022/12/27 08:00:03;;;;;;;11.38;2.00;;;;;;;;;;5024144;28;20150;-73
2022/12/27 08:02:29;;;;;;;9.05;1.70;;;;;;;;;;5016148;28;20091;-73
2022/12/27 08:04:54;;;;;;;8.55;2.42;;;;;;;;;;5022903;28;20022;-73
2022/12/27 08:07:20;;;;;;;8.10;2.17;;;;;;;;;;5032146;28;20512;-73
2022/12/27 08:09:46;;;;;;;8.95;2.55;;;;;;;;;;5028955;28;20038;-73
2022/12/27 08:12:15;;;;;;;9.27;1.90;;;;;;;;;;5032496;28;20036;-73
2022/12/27 08:14:40;;;;;;;8.05;1.50;;;;;;;;;;5029235;28;20041;-74
2022/12/27 08:17:11;;;;;;;13.40;1.20;;;;;;;;;;5023170;28;20048;-73
2022/12/27 08:19:36;;;;;;;12.95;1.80;;;;;;;;;;5020546;28;20044;-73
2022/12/27 08:22:04;;;;;;;16.20;1.40;;;;;;;;;;5020359;28;20075;-73
2022/12/27 08:24:30;;;;;;;4.35;1.30;;;;;;;;;;5019601;28;20092;-73
2022/12/27 08:26:55;;;;;;;16.80;1.48;;;;;;;;;;5024148;28;20500;-73
2022/12/27 08:29:20;;;;;;;9.18;0.98;;;;;;;;;;5025720;28;20041;-73
2022/12/27 08:31:46;;;;;;;5.03;1.38;;;;;;;;;;5018277;28;20156;-73
2022/12/27 08:34:11;;;;;;;9.50;0.85;;;;;;;;;;5019924;28;20433;-73
2022/12/27 08:36:37;;;;;;;15.93;1.45;;;;;;;;;;5024316;28;20041;-73
2022/12/27 08:39:03;;;;;;;16.13;1.92;;;;;;;;;;5029685;28;20397;-73
2022/12/27 08:41:28;;;;;;;12.10;1.95;;;;;;;;;;5030498;28;20083;-73
2022/12/27 08:43:54;;;;;;;8.05;1.50;;;;;;;;;;5017076;28;20049;-73
2022/12/27 08:46:19;;;;;;;8.30;2.03;;;;;;;;;;5025493;28;20103;-73
2022/12/27 08:48:48;;;;;;;10.40;1.42;;;;;;;;;;5013239;28;20123;-73
2022/12/27 08:51:13;;;;;;;15.18;2.42;;;;;;;;;;5019729;28;20045;-73
2022/12/27 08:53:39;;;;;;;7.10;1.50;;;;;;;;;;5022629;28;20107;-74
2022/12/27 08:56:04;;;;;;;10.90;1.40;;;;;;;;;;5017888;28;20432;-73
2022/12/27 08:58:30;;;;;;;21.17;1.60;;;;;;;;;;5021341;28;20034;-74
2022/12/27 09:00:55;;;;;;;10.38;1.40;;;;;;;;;;5023712;28;20037;-73
2022/12/27 09:03:21;;;;;;;7.00;1.50;;;;;;;;;;5032578;28;20033;-73
2022/12/27 09:05:48;;;;;;;6.95;0.90;;;;;;;;;;5020146;28;20172;-73
2022/12/27 09:08:14;;;;;;;4.07;1.02;;;;;;;;;;5027537;28;20029;-74
2022/12/27 09:10:40;;;;;;;12.60;1.65;;;;;;;;;;5022589;28;20038;-73
2022/12/27 09:13:05;;;;;;;8.35;1.40;;;;;;;;;;5029510;28;20045;-73
2022/12/27 09:15:30;;;;;;;8.77;1.20;;;;;;;;;;5030169;28;20048;-73
2022/12/27 09:17:56;;;;;;;3.17;0.88;;;;;;;;;;5015596;28;20022;-73
2022/12/27 09:20:21;;;;;;;13.60;1.50;;;;;;;;;;5018754;28;20042;-73
2022/12/27 09:22:47;;;;;;;10.30;1.95;;;;;;;;;;5019146;28;20092;-74
2022/12/27 09:25:12;;;;;;;4.82;1.02;;;;;;;;;;5020209;28;20466;-73
2022/12/27 09:27:38;;;;;;;10.25;1.40;;;;;;;;;;5027948;28;20044;-73
2022/12/27 09:30:04;;;;;;;11.55;1.15;;;;;;;;;;5024944;28;20091;-73
2022/12/27 09:32:30;;;;;;;12.95;1.10;;;;;;;;;;5023241;28;20032;-73
2022/12/27 09:34:55;;;;;;;10.30;1.30;;;;;;;;;;5021675;28;20045;-73
2022/12/27 09:37:21;;;;;;;14.18;1.58;;;;;;;;;;5016250;28;20038;-74
2022/12/27 09:39:46;;;;;;;8.95;1.42;;;;;;;;;;5021631;28;20052;-74
2022/12/27 09:42:17;;;;;;;9.48;2.40;;;;;;;;;;5024460;28;20037;-73
2022/12/27 09:45:04;;;;;;;11.23;1.42;;;;;;;;;;5028993;28;20090;-75
2022/12/27 09:47:48;;;;;;;7.57;1.20;;;;;;;;;;5019235;28;20084;-74
2022/12/27 09:50:41;;;;;;;9.18;1.33;;;;;;;;;;5020489;28;20065;-73
2022/12/27 09:53:16;;;;;;;7.07;1.30;;;;;;;;;;5023982;28;20086;-73
2022/12/27 09:55:52;;;;;;;9.75;1.27;;;;;;;;;;5027792;28;20045;-73
2022/12/27 09:58:33;;;;;;;10.57;3.33;;;;;;;;;;5016667;28;20141;-73
2022/12/27 10:00:59;;;;;;;6.22;1.98;;;;;;;;;;5016488;28;20034;-73
2022/12/27 10:03:26;;;;;;;8.88;2.50;;;;;;;;;;5029970;28;20120;-73
2022/12/27 10:06:18;;;;;;;11.70;2.00;;;;;;;;;;5027611;28;20060;-74
2022/12/27 10:08:55;;;;;;;18.88;2.50;;;;;;;;;;5014777;28;20084;-74
2022/12/27 10:11:35;;;;;;;6.20;1.20;;;;;;;;;;5010374;28;20048;-73
2022/12/27 10:14:28;;;;;;;8.13;1.27;;;;;;;;;;5032442;28;20048;-73
2022/12/27 10:16:59;;;;;;;8.55;1.70;;;;;;;;;;5031773;28;20041;-73
2022/12/27 10:19:42;;;;;;;10.85;2.70;;;;;;;;;;5017413;28;20041;-73
2022/12/27 10:22:10;;;;;;;10.38;2.53;;;;;;;;;;5022939;28;20092;-73
2022/12/27 10:24:49;;;;;;;8.23;1.95;;;;;;;;;;5028411;28;20037;-74
2022/12/27 10:27:21;;;;;;;11.60;2.08;;;;;;;;;;5029217;28;20030;-74
2022/12/27 10:29:47;;;;;;;5.40;1.55;;;;;;;;;;5037734;28;20061;-74
2022/12/27 10:32:14;;;;;;;11.23;1.45;;;;;;;;;;5028257;28;20083;-74
2022/12/27 10:34:40;;;;;;;6.05;1.55;;;;;;;;;;5017009;28;20087;-73
2022/12/27 10:37:05;;;;;;;11.20;2.45;;;;;;;;;;5020315;28;20042;-74
2022/12/27 10:39:34;;;;;;;12.00;2.20;;;;;;;;;;5022290;28;20405;-74
2022/12/27 10:42:12;;;;;;;7.60;2.03;;;;;;;;;;5018870;28;20437;-73
2022/12/27 10:44:38;;;;;;;8.82;1.77;;;;;;;;;;5017698;28;20040;-74
2022/12/27 10:47:04;;;;;;;10.77;2.58;;;;;;;;;;5028105;28;20030;-74
2022/12/27 10:49:33;;;;;;;13.90;2.15;;;;;;;;;;5018818;28;20504;-74
2022/12/27 10:52:06;;;;;;;12.00;1.95;;;;;;;;;;5022811;28;20087;-74
2022/12/27 10:54:31;;;;;;;7.07;2.00;;;;;;;;;;5020501;28;20121;-74
2022/12/27 10:57:16;;;;;;;13.77;1.95;;;;;;;;;;5024951;28;20124;-73
2022/12/27 10:59:42;;;;;;;4.97;1.20;;;;;;;;;;5025506;28;20038;-74
2022/12/27 11:02:16;;;;;;;4.97;1.27;;;;;;;;;;5032717;28;20037;-73
2022/12/27 11:04:59;;;;;;;5.38;1.90;;;;;;;;;;5034186;28;20099;-74
2022/12/27 11:07:32;;;;;;;10.20;1.75;;;;;;;;;;5035057;28;20377;-73
2022/12/27 11:10:17;;;;;;;12.77;1.83;;;;;;;;;;5013655;28;20037;-73
2022/12/27 11:13:19;;;;;;;7.78;1.73;;;;;;;;;;5029627;28;20128;-73
2022/12/27 11:15:53;;;;;;;8.38;1.27;;;;;;;;;;5022602;28;20183;-73
2022/12/27 11:18:20;;;;;;;7.55;1.52;;;;;;;;;;5033338;28;20068;-74
2022/12/27 11:20:50;;;;;;;14.38;1.92;;;;;;;;;;5019007;28;20432;-75
2022/12/27 11:23:18;;;;;;;11.43;1.30;;;;;;;;;;5018105;28;20498;-74
2022/12/27 11:25:52;;;;;;;9.20;2.22;;;;;;;;;;5025137;28;20374;-73
2022/12/27 11:28:30;;;;;;;12.73;1.65;;;;;;;;;;5026399;28;20095;-74
2022/12/27 11:30:57;;;;;;;6.63;1.10;;;;;;;;;;5015908;28;20037;-73
2022/12/27 11:33:30;;;;;;;11.90;2.05;;;;;;;;;;5027427;28;20073;-74
2022/12/27 11:35:56;;;;;;;8.18;1.77;;;;;;;;;;5023889;28;20041;-74
2022/12/27 11:38:26;;;;;;;13.30;2.28;;;;;;;;;;5029912;28;20048;-74
2022/12/27 11:41:11;;;;;;;10.82;1.83;;;;;;;;;;5026839;28;20052;-74
2022/12/27 11:43:56;;;;;;;16.75;2.22;;;;;;;;;;5011324;28;20048;-75
2022/12/27 11:46:40;;;;;;;11.52;1.42;;;;;;;;;;5021078;28;20098;-73
2022/12/27 11:49:13;;;;;;;13.05;1.38;;;;;;;;;;5030203;28;20034;-73
2022/12/27 11:51:38;;;;;;;10.48;1.45;;;;;;;;;;5029529;28;20038;-74
2022/12/27 11:54:12;;;;;;;10.77;2.35;;;;;;;;;;5018960;28;20466;-73
2022/12/27 11:56:40;;;;;;;8.25;1.77;;;;;;;;;;5020416;28;20398;-74
2022/12/27 11:59:27;;;;;;;6.90;1.40;;;;;;;;;;5018520;28;20190;-73
2022/12/27 12:02:23;;;;;;;9.93;1.73;;;;;;;;;;5015401;28;20129;-73
2022/12/27 12:05:10;;;;;;;12.60;1.20;;;;;;;;;;5014749;28;20030;-73
2022/12/27 12:07:43;;;;;;;12.25;2.15;;;;;;;;;;5002146;28;20421;-73
2022/12/27 12:10:23;;;;;;;10.05;2.60;;;;;;;;;;5014787;28;20046;-73
2022/12/27 12:13:16;;;;;;;12.10;1.40;;;;;;;;;;5029854;28;20049;-73
2022/12/27 12:15:59;;;;;;;12.20;2.25;;;;;;;;;;5013123;28;20544;-74
2022/12/27 12:18:32;;;;;;;14.13;1.73;;;;;;;;;;5024540;28;20041;-73
2022/12/27 12:21:13;;;;;;;13.85;2.20;;;;;;;;;;5023601;28;20045;-74
2022/12/27 12:24:16;;;;;;;7.03;1.80;;;;;;;;;;5012665;28;20045;-74
2022/12/27 12:26:55;;;;;;;15.93;1.55;;;;;;;;;;5014518;28;20038;-74
2022/12/27 12:29:35;;;;;;;14.38;1.40;;;;;;;;;;5026863;28;20094;-73
2022/12/27 12:32:08;;;;;;;14.85;2.38;;;;;;;;;;5029042;28;20041;-73
2022/12/27 12:35:11;;;;;;;6.10;1.73;;;;;;;;;;5030316;28;20041;-73
2022/12/27 12:38:02;;;;;;;20.23;3.92;;;;;;;;;;5035692;28;20658;-73
2022/12/27 12:40:50;;;;;;;33.15;7.88;;;;;;;;;;5020631;28;20482;-73
2022/12/27 12:43:31;;;;;;;8.27;3.15;;;;;;;;;;5020150;28;20053;-73
2022/12/27 12:46:00;;;;;;;8.10;1.65;;;;;;;;;;5013255;28;20113;-73
2022/12/27 12:48:46;;;;;;;4.63;1.50;;;;;;;;;;5020122;28;20038;-73
2022/12/27 12:51:50;;;;;;;10.20;1.20;;;;;;;;;;5030303;28;20048;-73
2022/12/27 12:54:43;;;;;;;11.95;1.88;;;;;;;;;;5012366;28;20456;-73
2022/12/27 12:57:30;;;;;;;7.25;1.63;;;;;;;;;;5015819;28;20042;-73
2022/12/27 13:00:23;;;;;;;12.77;2.30;;;;;;;;;;5021229;28;20374;-74
2022/12/27 13:03:11;;;;;;;9.90;2.70;;;;;;;;;;5019832;28;20037;-74
2022/12/27 13:06:08;;;;;;;12.27;2.60;;;;;;;;;;5030483;28;20041;-73
2022/12/27 13:08:39;;;;;;;4.40;1.20;;;;;;;;;;4995560;28;20069;-73
2022/12/27 13:11:26;;;;;;;16.73;3.00;;;;;;;;;;5023316;28;20037;-74
2022/12/27 13:14:04;;;;;;;5.57;1.20;;;;;;;;;;5018741;28;20081;-74
2022/12/27 13:16:29;;;;;;;7.00;1.90;;;;;;;;;;5013869;28;20042;-73
2022/12/27 13:19:10;;;;;;;15.25;1.92;;;;;;;;;;5017706;28;20108;-74
2022/12/27 13:22:02;;;;;;;20.80;8.23;;;;;;;;;;5002643;28;20461;-73
2022/12/27 13:24:41;;;;;;;26.00;8.38;;;;;;;;;;5010765;28;20111;-74
2022/12/27 13:27:38;;;;;;;17.83;7.50;;;;;;;;;;5023599;28;20386;-73
2022/12/27 13:30:18;;;;;;;10.30;2.45;;;;;;;;;;5023142;28;20393;-73
2022/12/27 13:33:05;;;;;;;5.47;1.58;;;;;;;;;;5026145;28;20156;-73
2022/12/27 13:35:56;;;;;;;11.43;1.70;;;;;;;;;;5018235;28;20072;-73
2022/12/27 13:38:56;;;;;;;12.77;2.60;;;;;;;;;;5026477;28;20047;-74
2022/12/27 13:41:55;;;;;;;7.47;1.10;;;;;;;;;;5019475;28;20370;-74
2022/12/27 13:44:46;;;;;;;4.90;1.38;;;;;;;;;;5006116;28;20076;-74
2022/12/27 13:47:50;;;;;;;14.13;2.00;;;;;;;;;;5020172;28;20420;-73
2022/12/27 13:50:54;;;;;;;12.20;2.47;;;;;;;;;;5012067;28;20136;-74
2022/12/27 13:53:50;;;;;;;10.10;2.67;;;;;;;;;;5014244;28;20282;-74
2022/12/27 13:56:43;;;;;;;17.33;2.83;;;;;;;;;;5017010;28;20045;-73
2022/12/27 13:59:24;;;;;;;14.05;2.00;;;;;;;;;;5031057;28;20041;-74
2022/12/27 14:01:52;;;;;;;10.43;2.22;;;;;;;;;;5020212;28;20053;-74
2022/12/27 14:04:29;;;;;;;11.18;2.20;;;;;;;;;;5027170;28;20038;-73
2022/12/27 14:07:11;;;;;;;12.57;2.30;;;;;;;;;;5023720;28;20042;-74
2022/12/27 14:10:04;;;;;;;6.35;1.63;;;;;;;;;;5028354;28;20041;-74
2022/12/27 14:12:57;;;;;;;12.55;2.17;;;;;;;;;;5000829;28;20441;-74
2022/12/27 14:15:47;;;;;;;10.55;2.88;;;;;;;;;;5016318;28;20045;-73
2022/12/27 14:18:18;;;;;;;9.65;1.80;;;;;;;;;;5016060;28;20557;-73
2022/12/27 14:20:59;;;;;;;18.63;4.30;;;;;;;;;;5022940;28;20366;-74
2022/12/27 14:23:27;;;;;;;5.97;1.98;;;;;;;;;;5015691;28;20034;-73
2022/12/27 14:26:26;;;;;;;12.85;3.20;;;;;;;;;;5024172;28;20042;-74
2022/12/27 14:29:16;;;;;;;13.23;2.78;;;;;;;;;;5013080;28;20034;-74
2022/12/27 14:32:09;;;;;;;6.53;1.80;;;;;;;;;;5018779;28;20041;-73
2022/12/27 14:35:16;;;;;;;10.00;2.25;;;;;;;;;;5020918;28;20041;-73
2022/12/27 14:38:18;;;;;;;16.10;2.50;;;;;;;;;;4980532;28;20458;-75
2022/12/27 14:41:05;;;;;;;11.25;2.33;;;;;;;;;;5036125;28;20049;-73
2022/12/27 14:44:15;;;;;;;21.40;4.15;;;;;;;;;;5016865;28;20466;-74
2022/12/27 14:47:08;;;;;;;15.13;4.93;;;;;;;;;;5029393;28;20050;-73
2022/12/27 14:50:24;;;;;;;17.67;5.07;;;;;;;;;;5006103;28;20049;-74
2022/12/27 14:52:55;;;;;;;21.77;2.63;;;;;;;;;;4999232;28;20132;-74
2022/12/27 14:56:05;;;;;;;9.73;2.92;;;;;;;;;;5020383;28;20552;-74
2022/12/27 14:58:39;;;;;;;15.18;2.50;;;;;;;;;;5023005;28;20058;-74
2022/12/27 15:01:36;;;;;;;17.17;3.17;;;;;;;;;;5036594;28;20042;-74
2022/12/27 15:04:27;;;;;;;7.78;2.25;;;;;;;;;;5009532;28;20046;-74
2022/12/27 15:07:22;;;;;;;16.83;5.80;;;;;;;;;;5020496;28;20060;-75
2022/12/27 15:09:53;;;;;;;14.68;3.60;;;;;;;;;;5025043;28;20041;-74
2022/12/27 15:12:36;;;;;;;7.90;1.67;;;;;;;;;;5022051;28;20038;-74
2022/12/27 15:15:24;;;;;;;8.53;2.30;;;;;;;;;;5012827;28;20041;-74
2022/12/27 15:18:36;;;;;;;17.27;2.70;;;;;;;;;;5019650;28;20065;-74
2022/12/27 15:21:50;;;;;;;12.73;3.15;;;;;;;;;;5019048;28;20095;-74
2022/12/27 15:24:46;;;;;;;11.60;1.88;;;;;;;;;;5018303;28;20088;-74
2022/12/27 15:27:29;;;;;;;8.23;2.03;;;;;;;;;;5012230;28;20042;-74
2022/12/27 15:30:19;;;;;;;13.63;2.25;;;;;;;;;;5027501;28;20489;-74
2022/12/27 15:33:06;;;;;;;14.40;2.92;;;;;;;;;;5029577;28;20033;-74
2022/12/27 15:35:38;;;;;;;8.07;2.50;;;;;;;;;;5031084;28;20037;-74
2022/12/27 15:38:34;;;;;;;15.32;2.42;;;;;;;;;;5021545;28;20033;-74
2022/12/27 15:41:09;;;;;;;13.32;3.38;;;;;;;;;;5022196;28;20061;-74
2022/12/27 15:43:49;;;;;;;11.75;1.77;;;;;;;;;;5018240;28;20060;-73
2022/12/27 15:46:58;;;;;;;8.20;1.67;;;;;;;;;;5015750;28;20145;-74
2022/12/27 15:49:26;;;;;;;19.55;2.53;;;;;;;;;;5026552;28;20080;-74
2022/12/27 15:52:10;;;;;;;13.48;2.53;;;;;;;;;;5019494;28;20493;-74
2022/12/27 15:54:41;;;;;;;7.38;2.63;;;;;;;;;;5018795;28;20041;-74
2022/12/27 15:57:28;;;;;;;9.75;3.15;;;;;;;;;;5015536;28;20045;-74
2022/12/27 16:00:15;;;;;;;18.98;2.97;;;;;;;;;;5015456;28;20057;-74
2022/12/27 16:02:43;;;;;;;15.35;2.53;;;;;;;;;;5023469;28;20508;-73
2022/12/27 16:05:20;;;;;;;14.68;2.70;;;;;;;;;;5028448;28;20136;-74
2022/12/27 16:07:48;;;;;;;13.48;2.45;;;;;;;;;;5026050;28;20042;-74
2022/12/27 16:10:29;;;;;;;9.02;1.50;;;;;;;;;;5022901;28;20042;-74
2022/12/27 16:13:40;;;;;;;7.50;2.13;;;;;;;;;;5021658;28;20038;-75
2022/12/27 16:16:09;;;;;;;5.70;1.60;;;;;;;;;;5016897;28;20038;-74
2022/12/27 16:18:56;;;;;;;7.00;2.13;;;;;;;;;;5023010;28;20124;-74
2022/12/27 16:21:22;;;;;;;13.48;3.25;;;;;;;;;;5021566;28;20045;-74
2022/12/27 16:23:52;;;;;;;13.90;2.95;;;;;;;;;;5023940;28;20087;-74
2022/12/27 16:26:20;;;;;;;13.95;2.55;;;;;;;;;;5017227;28;20049;-73
2022/12/27 16:28:54;;;;;;;8.63;2.55;;;;;;;;;;5030618;28;20417;-74
2022/12/27 16:31:21;;;;;;;9.30;2.50;;;;;;;;;;5023459;28;20072;-74
2022/12/27 16:33:48;;;;;;;9.30;1.50;;;;;;;;;;5015882;28;20030;-75
2022/12/27 16:36:15;;;;;;;9.00;2.13;;;;;;;;;;5018009;28;20151;-74
2022/12/27 16:38:53;;;;;;;8.13;1.92;;;;;;;;;;5013383;28;20046;-73
2022/12/27 16:41:24;;;;;;;7.47;1.75;;;;;;;;;;5019995;28;20424;-74
2022/12/27 16:43:52;;;;;;;10.73;1.98;;;;;;;;;;5018330;28;20037;-74
2022/12/27 16:46:49;;;;;;;14.48;2.70;;;;;;;;;;5015780;28;20040;-73
2022/12/27 16:49:46;;;;;;;17.92;2.83;;;;;;;;;;5020006;28;20056;-73
2022/12/27 16:52:29;;;;;;;7.07;1.55;;;;;;;;;;5024375;28;20477;-73